^^
Saratoga-Weather Station Historical Data
Daily Summary for January 25, 2021 Units:  Both    English   Metric
Daily Weekly Monthly Yearly Custom
  High: Low: Average:
Temperature: 66 °F /  18.9 °C 59.4 °F /  15.2 °C 61.3 °F /  16.3 °C
Dew Point: 60.6 °F /  15.9 °C 55.4 °F /  13 °C 57.2 °F /  14 °C
Humidity: 89% 82% 86%
Wind Speed: 8.1mph /  13km/h - 1.3mph /  2.1km/h
Wind Gust: 8mph /  12.9km/h - -
Wind- - SSW
Pressure: 30.1 in /  1018.0 hPa 30 in /  1016.3 hPa -
Precipitation: 0 in /  0.0 mm    
Historical Graphs
 
 
Tabular Data for January 25, 2021
Time Temperature Dew Point Pressure Wind Wind Speed Wind Gust Humidity Rainfall Rate (Hourly) solar
00:01 62.8 °F /  17.1 °C 57.2 °F /  14 °C 30.1in /  1018.0hPa ENE 2mph /  3.2km/h 4mph /  6.4km/h 82% 0in /  0.0mm 0 W/m2
00:06 62.4 °F /  16.9 °C 56.8 °F /  13.8 °C 30.1in /  1018.0hPa North 0.9mph /  1.4km/h 4mph /  6.4km/h 82% 0in /  0.0mm 0 W/m2
00:11 62.4 °F /  16.9 °C 56.8 °F /  13.8 °C 30.1in /  1018.0hPa Calm   2mph /  3.2km/h 82% 0in /  0.0mm 0 W/m2
00:16 62.2 °F /  16.8 °C 56.7 °F /  13.7 °C 30.1in /  1018.0hPa West 2mph /  3.2km/h 3mph /  4.8km/h 82% 0in /  0.0mm 0 W/m2
00:21 62.1 °F /  16.7 °C 56.5 °F /  13.6 °C 30.1in /  1018.0hPa WNW 2mph /  3.2km/h 4mph /  6.4km/h 82% 0in /  0.0mm 0 W/m2
00:26 62.1 °F /  16.7 °C 56.5 °F /  13.6 °C 30.1in /  1018.0hPa NW 4.9mph /  7.9km/h 5mph /  8km/h 82% 0in /  0.0mm 0 W/m2
00:31 61.9 °F /  16.6 °C 56.7 °F /  13.7 °C 30.1in /  1018.0hPa West 2mph /  3.2km/h 8mph /  12.9km/h 83% 0in /  0.0mm 0 W/m2
00:36 61.9 °F /  16.6 °C 56.7 °F /  13.7 °C 30.1in /  1018.0hPa West 2.9mph /  4.7km/h 3mph /  4.8km/h 83% 0in /  0.0mm 0 W/m2
00:41 61.9 °F /  16.6 °C 56.7 °F /  13.7 °C 30.1in /  1018.0hPa WNW 2.9mph /  4.7km/h 8mph /  12.9km/h 83% 0in /  0.0mm 0 W/m2
00:46 61.7 °F /  16.5 °C 56.5 °F /  13.6 °C 30.1in /  1018.0hPa Calm   4mph /  6.4km/h 83% 0in /  0.0mm 0 W/m2
00:51 61.7 °F /  16.5 °C 56.5 °F /  13.6 °C 30.1in /  1018.0hPa West 2mph /  3.2km/h 4mph /  6.4km/h 83% 0in /  0.0mm 0 W/m2
00:56 61.5 °F /  16.4 °C 56.3 °F /  13.5 °C 30.1in /  1018.0hPa NNW 2mph /  3.2km/h 4mph /  6.4km/h 83% 0in /  0.0mm 0 W/m2
01:01 61.5 °F /  16.4 °C 56.3 °F /  13.5 °C 30.1in /  1017.6hPa WNW 2.9mph /  4.7km/h 3mph /  4.8km/h 83% 0in /  0.0mm 0 W/m2
01:06 61.7 °F /  16.5 °C 56.5 °F /  13.6 °C 30.1in /  1017.6hPa WNW 0.9mph /  1.4km/h 4mph /  6.4km/h 83% 0in /  0.0mm 0 W/m2
01:11 61.7 °F /  16.5 °C 56.5 °F /  13.6 °C 30.1in /  1017.6hPa West 2.9mph /  4.7km/h 4mph /  6.4km/h 83% 0in /  0.0mm 0 W/m2
01:16 61.7 °F /  16.5 °C 56.5 °F /  13.6 °C 30.1in /  1018.0hPa NW 2mph /  3.2km/h 2mph /  3.2km/h 83% 0in /  0.0mm 0 W/m2
01:21 61.7 °F /  16.5 °C 56.5 °F /  13.6 °C 30.1in /  1018.0hPa WSW 2mph /  3.2km/h 4mph /  6.4km/h 83% 0in /  0.0mm 0 W/m2
01:26 61.5 °F /  16.4 °C 56.3 °F /  13.5 °C 30.1in /  1017.6hPa West 2mph /  3.2km/h 3mph /  4.8km/h 83% 0in /  0.0mm 0 W/m2
01:31 61.5 °F /  16.4 °C 56.3 °F /  13.5 °C 30.1in /  1017.6hPa Calm   3mph /  4.8km/h 83% 0in /  0.0mm 0 W/m2
01:36 61.5 °F /  16.4 °C 56.3 °F /  13.5 °C 30.1in /  1017.6hPa East 2.9mph /  4.7km/h 3mph /  4.8km/h 83% 0in /  0.0mm 0 W/m2
01:41 61.5 °F /  16.4 °C 56.3 °F /  13.5 °C 30.1in /  1017.6hPa Calm   3mph /  4.8km/h 83% 0in /  0.0mm 0 W/m2
01:46 61.5 °F /  16.4 °C 56.7 °F /  13.7 °C 30.1in /  1017.6hPa Calm   2mph /  3.2km/h 84% 0in /  0.0mm 0 W/m2
01:51 61.5 °F /  16.4 °C 56.7 °F /  13.7 °C 30.1in /  1017.6hPa NW 2mph /  3.2km/h 3mph /  4.8km/h 84% 0in /  0.0mm 0 W/m2
01:56 61.5 °F /  16.4 °C 56.7 °F /  13.7 °C 30.1in /  1017.6hPa West 2mph /  3.2km/h 4mph /  6.4km/h 84% 0in /  0.0mm 0 W/m2
02:01 61.5 °F /  16.4 °C 56.3 °F /  13.5 °C 30.1in /  1017.6hPa North 0.9mph /  1.4km/h 3mph /  4.8km/h 83% 0in /  0.0mm 0 W/m2
02:06 61.5 °F /  16.4 °C 56.3 °F /  13.5 °C 30.1in /  1017.6hPa North 0.9mph /  1.4km/h 2mph /  3.2km/h 83% 0in /  0.0mm 0 W/m2
02:11 61.5 °F /  16.4 °C 56.3 °F /  13.5 °C 30.1in /  1017.6hPa SW 0.9mph /  1.4km/h 2mph /  3.2km/h 83% 0in /  0.0mm 0 W/m2
02:16 61.5 °F /  16.4 °C 56.3 °F /  13.5 °C 30.1in /  1017.6hPa Calm     83% 0in /  0.0mm 0 W/m2
02:21 61.5 °F /  16.4 °C 56.3 °F /  13.5 °C 30.1in /  1017.6hPa ESE 2mph /  3.2km/h 4mph /  6.4km/h 83% 0in /  0.0mm 0 W/m2
02:26 61.5 °F /  16.4 °C 56.7 °F /  13.7 °C 30.1in /  1017.6hPa ESE 2mph /  3.2km/h 3mph /  4.8km/h 84% 0in /  0.0mm 0 W/m2
02:31 61.3 °F /  16.3 °C 56.5 °F /  13.6 °C 30in /  1017.3hPa ENE 0.9mph /  1.4km/h 4mph /  6.4km/h 84% 0in /  0.0mm 0 W/m2
02:36 61.3 °F /  16.3 °C 56.5 °F /  13.6 °C 30in /  1017.3hPa West 0.9mph /  1.4km/h 3mph /  4.8km/h 84% 0in /  0.0mm 0 W/m2
02:41 61.3 °F /  16.3 °C 56.5 °F /  13.6 °C 30in /  1017.3hPa Calm   2mph /  3.2km/h 84% 0in /  0.0mm 0 W/m2
02:46 61.3 °F /  16.3 °C 56.5 °F /  13.6 °C 30in /  1017.3hPa WNW 0.9mph /  1.4km/h 3mph /  4.8km/h 84% 0in /  0.0mm 0 W/m2
02:51 61.2 °F /  16.2 °C 56.3 °F /  13.5 °C 30in /  1017.3hPa West 2mph /  3.2km/h 4mph /  6.4km/h 84% 0in /  0.0mm 0 W/m2
02:56 61.2 °F /  16.2 °C 56.3 °F /  13.5 °C 30in /  1017.3hPa NNE 2mph /  3.2km/h 6mph /  9.7km/h 84% 0in /  0.0mm 0 W/m2
03:01 61.2 °F /  16.2 °C 56.3 °F /  13.5 °C 30in /  1017.3hPa WSW 2mph /  3.2km/h 6mph /  9.7km/h 84% 0in /  0.0mm 0 W/m2
03:06 61 °F /  16.1 °C 56.1 °F /  13.4 °C 30in /  1017.3hPa NW 0.9mph /  1.4km/h 5mph /  8km/h 84% 0in /  0.0mm 0 W/m2
03:11 61 °F /  16.1 °C 56.1 °F /  13.4 °C 30in /  1017.3hPa West 2mph /  3.2km/h 4mph /  6.4km/h 84% 0in /  0.0mm 0 W/m2
03:16 60.8 °F /  16 °C 55.9 °F /  13.3 °C 30in /  1017.3hPa Calm   3mph /  4.8km/h 84% 0in /  0.0mm 0 W/m2
03:22 60.6 °F /  15.9 °C 56.1 °F /  13.4 °C 30in /  1017.3hPa Calm   4mph /  6.4km/h 85% 0in /  0.0mm 0 W/m2
03:27 60.6 °F /  15.9 °C 55.8 °F /  13.2 °C 30in /  1017.3hPa Calm   1mph /  1.6km/h 84% 0in /  0.0mm 0 W/m2
03:32 60.4 °F /  15.8 °C 55.9 °F /  13.3 °C 30in /  1017.3hPa NNW 2mph /  3.2km/h 3mph /  4.8km/h 85% 0in /  0.0mm 0 W/m2
03:37 60.4 °F /  15.8 °C 55.9 °F /  13.3 °C 30in /  1017.3hPa NW 0.9mph /  1.4km/h 2mph /  3.2km/h 85% 0in /  0.0mm 0 W/m2
03:42 60.3 °F /  15.7 °C 55.8 °F /  13.2 °C 30in /  1016.9hPa WNW 2mph /  3.2km/h 4mph /  6.4km/h 85% 0in /  0.0mm 0 W/m2
03:47 60.3 °F /  15.7 °C 55.8 °F /  13.2 °C 30in /  1016.9hPa Calm   2mph /  3.2km/h 85% 0in /  0.0mm 0 W/m2
03:52 60.1 °F /  15.6 °C 55.6 °F /  13.1 °C 30in /  1016.9hPa ENE 2mph /  3.2km/h 5mph /  8km/h 85% 0in /  0.0mm 0 W/m2
03:57 60.1 °F /  15.6 °C 55.9 °F /  13.3 °C 30in /  1016.9hPa NNE 2mph /  3.2km/h 3mph /  4.8km/h 86% 0in /  0.0mm 0 W/m2
04:02 59.9 °F /  15.5 °C 55.8 °F /  13.2 °C 30in /  1016.9hPa Calm   5mph /  8km/h 86% 0in /  0.0mm 0 W/m2
04:07 59.7 °F /  15.4 °C 55.6 °F /  13.1 °C 30in /  1016.9hPa WNW 0.9mph /  1.4km/h 2mph /  3.2km/h 86% 0in /  0.0mm 0 W/m2
04:12 59.7 °F /  15.4 °C 55.6 °F /  13.1 °C 30in /  1016.9hPa Calm   4mph /  6.4km/h 86% 0in /  0.0mm 0 W/m2
04:17 59.5 °F /  15.3 °C 55.4 °F /  13 °C 30in /  1016.9hPa North 0.9mph /  1.4km/h 2mph /  3.2km/h 86% 0in /  0.0mm 0 W/m2
04:22 59.5 °F /  15.3 °C 55.4 °F /  13 °C 30in /  1016.9hPa WNW 2.9mph /  4.7km/h 3mph /  4.8km/h 86% 0in /  0.0mm 0 W/m2
04:27 59.5 °F /  15.3 °C 55.6 °F /  13.1 °C 30in /  1016.9hPa Calm   2mph /  3.2km/h 87% 0in /  0.0mm 0 W/m2
04:32 59.4 °F /  15.2 °C 55.4 °F /  13 °C 30in /  1016.9hPa South 0.9mph /  1.4km/h 4mph /  6.4km/h 87% 0in /  0.0mm 0 W/m2
04:37 59.4 °F /  15.2 °C 55.4 °F /  13 °C 30in /  1016.9hPa NNE 0.9mph /  1.4km/h 4mph /  6.4km/h 87% 0in /  0.0mm 0 W/m2
04:42 59.4 °F /  15.2 °C 55.4 °F /  13 °C 30in /  1016.9hPa West 2.9mph /  4.7km/h 6mph /  9.7km/h 87% 0in /  0.0mm 0 W/m2
04:47 59.4 °F /  15.2 °C 55.4 °F /  13 °C 30in /  1016.9hPa East 2.9mph /  4.7km/h 4mph /  6.4km/h 87% 0in /  0.0mm 0 W/m2
04:52 59.5 °F /  15.3 °C 55.6 °F /  13.1 °C 30in /  1016.6hPa NW 4mph /  6.4km/h 5mph /  8km/h 87% 0in /  0.0mm 0 W/m2
04:57 59.5 °F /  15.3 °C 55.6 °F /  13.1 °C 30in /  1016.6hPa West 2mph /  3.2km/h 3mph /  4.8km/h 87% 0in /  0.0mm 0 W/m2
05:02 59.5 °F /  15.3 °C 55.6 °F /  13.1 °C 30in /  1016.6hPa ENE 0.9mph /  1.4km/h 2mph /  3.2km/h 87% 0in /  0.0mm 0 W/m2
05:07 59.5 °F /  15.3 °C 55.6 °F /  13.1 °C 30in /  1016.6hPa NNE 2mph /  3.2km/h 5mph /  8km/h 87% 0in /  0.0mm 0 W/m2
05:12 59.5 °F /  15.3 °C 55.6 °F /  13.1 °C 30in /  1016.6hPa Calm   2mph /  3.2km/h 87% 0in /  0.0mm 0 W/m2
05:17 59.5 °F /  15.3 °C 55.6 °F /  13.1 °C 30in /  1016.6hPa Calm   2mph /  3.2km/h 87% 0in /  0.0mm 0 W/m2
05:22 59.5 °F /  15.3 °C 55.6 °F /  13.1 °C 30in /  1016.6hPa North 2mph /  3.2km/h 2mph /  3.2km/h 87% 0in /  0.0mm 0 W/m2
05:27 59.5 °F /  15.3 °C 55.6 °F /  13.1 °C 30in /  1016.6hPa WNW 0.9mph /  1.4km/h 2mph /  3.2km/h 87% 0in /  0.0mm 0 W/m2
05:32 59.5 °F /  15.3 °C 55.6 °F /  13.1 °C 30in /  1016.6hPa ESE 0.9mph /  1.4km/h 4mph /  6.4km/h 87% 0in /  0.0mm 0 W/m2
05:37 59.5 °F /  15.3 °C 55.6 °F /  13.1 °C 30in /  1016.6hPa Calm   2mph /  3.2km/h 87% 0in /  0.0mm 0 W/m2
05:42 59.5 °F /  15.3 °C 55.6 °F /  13.1 °C 30in /  1016.6hPa NE 0.9mph /  1.4km/h 3mph /  4.8km/h 87% 0in /  0.0mm 5 W/m2
05:47 59.5 °F /  15.3 °C 55.6 °F /  13.1 °C 30in /  1016.3hPa NE 0.9mph /  1.4km/h 1mph /  1.6km/h 87% 0in /  0.0mm 5 W/m2
05:52 59.4 °F /  15.2 °C 55.8 °F /  13.2 °C 30in /  1016.6hPa WNW 2mph /  3.2km/h 4mph /  6.4km/h 88% 0in /  0.0mm 7 W/m2
05:57 59.4 °F /  15.2 °C 55.8 °F /  13.2 °C 30in /  1016.6hPa Calm   3mph /  4.8km/h 88% 0in /  0.0mm 7 W/m2
06:02 59.5 °F /  15.3 °C 55.9 °F /  13.3 °C 30in /  1016.6hPa Calm   1mph /  1.6km/h 88% 0in /  0.0mm 11 W/m2
06:07 59.5 °F /  15.3 °C 55.9 °F /  13.3 °C 30in /  1016.6hPa ENE 0.9mph /  1.4km/h 3mph /  4.8km/h 88% 0in /  0.0mm 16 W/m2
06:12 59.5 °F /  15.3 °C 55.9 °F /  13.3 °C 30in /  1016.6hPa NE 4.9mph /  7.9km/h 5mph /  8km/h 88% 0in /  0.0mm 21 W/m2
06:17 59.5 °F /  15.3 °C 55.9 °F /  13.3 °C 30in /  1016.6hPa North 0.9mph /  1.4km/h 4mph /  6.4km/h 88% 0in /  0.0mm 21 W/m2
06:22 59.5 °F /  15.3 °C 55.9 °F /  13.3 °C 30in /  1016.6hPa WNW 0.9mph /  1.4km/h 3mph /  4.8km/h 88% 0in /  0.0mm 18 W/m2
06:27 59.5 °F /  15.3 °C 55.9 °F /  13.3 °C 30in /  1016.6hPa SW 0.9mph /  1.4km/h 3mph /  4.8km/h 88% 0in /  0.0mm 16 W/m2
06:32 59.5 °F /  15.3 °C 55.9 °F /  13.3 °C 30in /  1016.6hPa West 0.9mph /  1.4km/h 4mph /  6.4km/h 88% 0in /  0.0mm 18 W/m2
06:37 59.5 °F /  15.3 °C 55.9 °F /  13.3 °C 30in /  1016.6hPa WNW 2mph /  3.2km/h 3mph /  4.8km/h 88% 0in /  0.0mm 25 W/m2
06:42 59.7 °F /  15.4 °C 55.8 °F /  13.2 °C 30in /  1016.6hPa West 2.9mph /  4.7km/h 6mph /  9.7km/h 87% 0in /  0.0mm 26 W/m2
06:47 59.7 °F /  15.4 °C 55.8 °F /  13.2 °C 30in /  1016.6hPa North 2.9mph /  4.7km/h 4mph /  6.4km/h 87% 0in /  0.0mm 28 W/m2
06:52 59.7 °F /  15.4 °C 55.8 °F /  13.2 °C 30in /  1016.6hPa WNW 2mph /  3.2km/h 6mph /  9.7km/h 87% 0in /  0.0mm 32 W/m2
06:57 59.9 °F /  15.5 °C 56.3 °F /  13.5 °C 30in /  1016.6hPa NW 2.9mph /  4.7km/h 6mph /  9.7km/h 88% 0in /  0.0mm 33 W/m2
07:02 59.9 °F /  15.5 °C 56.3 °F /  13.5 °C 30in /  1016.3hPa NW 0.9mph /  1.4km/h 2mph /  3.2km/h 88% 0in /  0.0mm 37 W/m2
07:07 60.1 °F /  15.6 °C 56.1 °F /  13.4 °C 30in /  1016.3hPa NW 2mph /  3.2km/h 4mph /  6.4km/h 87% 0in /  0.0mm 37 W/m2
07:12 60.1 °F /  15.6 °C 56.1 °F /  13.4 °C 30in /  1016.3hPa NW 0.9mph /  1.4km/h 3mph /  4.8km/h 87% 0in /  0.0mm 35 W/m2
07:17 60.1 °F /  15.6 °C 56.1 °F /  13.4 °C 30in /  1016.3hPa SE 0.9mph /  1.4km/h 3mph /  4.8km/h 87% 0in /  0.0mm 35 W/m2
07:22 60.3 °F /  15.7 °C 56.7 °F /  13.7 °C 30in /  1016.3hPa NNW 2mph /  3.2km/h 5mph /  8km/h 88% 0in /  0.0mm 39 W/m2
07:27 60.3 °F /  15.7 °C 56.7 °F /  13.7 °C 30in /  1016.3hPa East 0.9mph /  1.4km/h 3mph /  4.8km/h 88% 0in /  0.0mm 42 W/m2
07:32 60.1 °F /  15.6 °C 56.5 °F /  13.6 °C 30in /  1016.3hPa NNW 2.9mph /  4.7km/h 4mph /  6.4km/h 88% 0in /  0.0mm 51 W/m2
07:37 60.1 °F /  15.6 °C 56.5 °F /  13.6 °C 30in /  1016.3hPa WNW 2.9mph /  4.7km/h 4mph /  6.4km/h 88% 0in /  0.0mm 62 W/m2
07:42 60.1 °F /  15.6 °C 56.5 °F /  13.6 °C 30in /  1016.3hPa NNW 0.9mph /  1.4km/h 4mph /  6.4km/h 88% 0in /  0.0mm 67 W/m2
07:47 60.1 °F /  15.6 °C 56.8 °F /  13.8 °C 30in /  1016.3hPa Calm   3mph /  4.8km/h 89% 0in /  0.0mm 65 W/m2
07:52 60.1 °F /  15.6 °C 56.8 °F /  13.8 °C 30in /  1016.3hPa Calm   4mph /  6.4km/h 89% 0in /  0.0mm 65 W/m2
07:57 60.3 °F /  15.7 °C 57 °F /  13.9 °C 30in /  1016.3hPa East 2mph /  3.2km/h 2mph /  3.2km/h 89% 0in /  0.0mm 72 W/m2
08:02 60.3 °F /  15.7 °C 57 °F /  13.9 °C 30in /  1016.3hPa Calm   4mph /  6.4km/h 89% 0in /  0.0mm 88 W/m2
08:07 60.3 °F /  15.7 °C 57 °F /  13.9 °C 30in /  1016.3hPa NE 0.9mph /  1.4km/h 1mph /  1.6km/h 89% 0in /  0.0mm 90 W/m2
08:12 60.4 °F /  15.8 °C 57.2 °F /  14 °C 30in /  1016.3hPa NNE 2mph /  3.2km/h 3mph /  4.8km/h 89% 0in /  0.0mm 91 W/m2
08:17 60.4 °F /  15.8 °C 56.8 °F /  13.8 °C 30in /  1016.3hPa ESE 2mph /  3.2km/h 4mph /  6.4km/h 88% 0in /  0.0mm 113 W/m2
08:22 60.6 °F /  15.9 °C 57.4 °F /  14.1 °C 30in /  1016.3hPa WNW 2mph /  3.2km/h 3mph /  4.8km/h 89% 0in /  0.0mm 97 W/m2
08:27 60.6 °F /  15.9 °C 57 °F /  13.9 °C 30in /  1016.3hPa NNE 0.9mph /  1.4km/h 3mph /  4.8km/h 88% 0in /  0.0mm 97 W/m2
08:32 60.8 °F /  16 °C 57.2 °F /  14 °C 30in /  1016.3hPa SSW 0.9mph /  1.4km/h 3mph /  4.8km/h 88% 0in /  0.0mm 98 W/m2
08:37 61 °F /  16.1 °C 57.4 °F /  14.1 °C 30in /  1016.3hPa NE 0.9mph /  1.4km/h 5mph /  8km/h 88% 0in /  0.0mm 97 W/m2
08:42 61 °F /  16.1 °C 57.4 °F /  14.1 °C 30in /  1016.3hPa NE 0.9mph /  1.4km/h 4mph /  6.4km/h 88% 0in /  0.0mm 100 W/m2
08:47 61 °F /  16.1 °C 57 °F /  13.9 °C 30in /  1016.3hPa North 2mph /  3.2km/h 3mph /  4.8km/h 87% 0in /  0.0mm 105 W/m2
08:52 61.2 °F /  16.2 °C 57.2 °F /  14 °C 30in /  1016.3hPa NNW 4mph /  6.4km/h 4mph /  6.4km/h 87% 0in /  0.0mm 111 W/m2
08:57 61.2 °F /  16.2 °C 57.2 °F /  14 °C 30in /  1016.3hPa NNW 8.1mph /  13km/h 8mph /  12.9km/h 87% 0in /  0.0mm 113 W/m2
09:02 61.3 °F /  16.3 °C 57.4 °F /  14.1 °C 30in /  1016.3hPa NNW 0.9mph /  1.4km/h 3mph /  4.8km/h 87% 0in /  0.0mm 127 W/m2
09:07 61.5 °F /  16.4 °C 57.6 °F /  14.2 °C 30in /  1016.3hPa East 2mph /  3.2km/h 6mph /  9.7km/h 87% 0in /  0.0mm 134 W/m2
09:12 61.5 °F /  16.4 °C 57.6 °F /  14.2 °C 30in /  1016.3hPa NE 2mph /  3.2km/h 5mph /  8km/h 87% 0in /  0.0mm 158 W/m2
09:17 61.7 °F /  16.5 °C 57.7 °F /  14.3 °C 30in /  1016.3hPa Calm   3mph /  4.8km/h 87% 0in /  0.0mm 165 W/m2
09:22 61.9 °F /  16.6 °C 57.9 °F /  14.4 °C 30in /  1016.3hPa ESE 4mph /  6.4km/h 4mph /  6.4km/h 87% 0in /  0.0mm 160 W/m2
09:27 61.9 °F /  16.6 °C 57.6 °F /  14.2 °C 30in /  1016.3hPa NNE 2mph /  3.2km/h 5mph /  8km/h 86% 0in /  0.0mm 149 W/m2
09:32 62.1 °F /  16.7 °C 58.1 °F /  14.5 °C 30in /  1016.3hPa WNW 0.9mph /  1.4km/h 4mph /  6.4km/h 87% 0in /  0.0mm 162 W/m2
09:37 62.1 °F /  16.7 °C 57.7 °F /  14.3 °C 30in /  1016.3hPa NW 2.9mph /  4.7km/h 3mph /  4.8km/h 86% 0in /  0.0mm 160 W/m2
09:42 62.2 °F /  16.8 °C 57.9 °F /  14.4 °C 30in /  1016.6hPa Calm   2mph /  3.2km/h 86% 0in /  0.0mm 134 W/m2
09:47 62.2 °F /  16.8 °C 58.3 °F /  14.6 °C 30in /  1016.6hPa Calm   2mph /  3.2km/h 87% 0in /  0.0mm 102 W/m2
09:52 62.4 °F /  16.9 °C 58.1 °F /  14.5 °C 30in /  1016.6hPa ESE 2.9mph /  4.7km/h 6mph /  9.7km/h 86% 0in /  0.0mm 98 W/m2
09:57 62.2 °F /  16.8 °C 57.9 °F /  14.4 °C 30in /  1016.6hPa Calm   3mph /  4.8km/h 86% 0in /  0.0mm 118 W/m2
10:02 62.4 °F /  16.9 °C 58.1 °F /  14.5 °C 30in /  1016.6hPa Calm   6mph /  9.7km/h 86% 0in /  0.0mm 91 W/m2
10:07 62.4 °F /  16.9 °C 58.1 °F /  14.5 °C 30in /  1016.6hPa WNW 2mph /  3.2km/h 4mph /  6.4km/h 86% 0in /  0.0mm 77 W/m2
10:12 62.4 °F /  16.9 °C 58.1 °F /  14.5 °C 30in /  1016.6hPa Calm   4mph /  6.4km/h 86% 0in /  0.0mm 72 W/m2
10:17 62.4 °F /  16.9 °C 58.1 °F /  14.5 °C 30in /  1016.6hPa Calm   3mph /  4.8km/h 86% 0in /  0.0mm 60 W/m2
10:22 62.4 °F /  16.9 °C 58.1 °F /  14.5 °C 30in /  1016.6hPa Calm   2mph /  3.2km/h 86% 0in /  0.0mm 69 W/m2
10:27 62.4 °F /  16.9 °C 58.1 °F /  14.5 °C 30in /  1016.9hPa Calm   1mph /  1.6km/h 86% 0in /  0.0mm 49 W/m2
10:32 62.4 °F /  16.9 °C 58.1 °F /  14.5 °C 30in /  1016.9hPa Calm   1mph /  1.6km/h 86% 0in /  0.0mm 39 W/m2
10:37 62.4 °F /  16.9 °C 58.1 °F /  14.5 °C 30in /  1016.9hPa NE 2mph /  3.2km/h 5mph /  8km/h 86% 0in /  0.0mm 54 W/m2
10:43 62.6 °F /  17 °C 58.3 °F /  14.6 °C 30in /  1016.9hPa NE 0.9mph /  1.4km/h 3mph /  4.8km/h 86% 0in /  0.0mm 60 W/m2
10:48 62.6 °F /  17 °C 58.3 °F /  14.6 °C 30in /  1016.9hPa NE 0.9mph /  1.4km/h 5mph /  8km/h 86% 0in /  0.0mm 84 W/m2
10:53 62.6 °F /  17 °C 58.3 °F /  14.6 °C 30in /  1016.9hPa ESE 2mph /  3.2km/h 3mph /  4.8km/h 86% 0in /  0.0mm 91 W/m2
10:58 62.8 °F /  17.1 °C 58.8 °F /  14.9 °C 30in /  1016.9hPa NNE 0.9mph /  1.4km/h 2mph /  3.2km/h 87% 0in /  0.0mm 113 W/m2
11:03 63 °F /  17.2 °C 59 °F /  15 °C 30in /  1016.9hPa NNE 0.9mph /  1.4km/h 2mph /  3.2km/h 87% 0in /  0.0mm 111 W/m2
11:08 63 °F /  17.2 °C 59 °F /  15 °C 30in /  1017.3hPa NE 2.9mph /  4.7km/h 3mph /  4.8km/h 87% 0in /  0.0mm 88 W/m2
11:13 63 °F /  17.2 °C 59 °F /  15 °C 30in /  1016.9hPa Calm   3mph /  4.8km/h 87% 0in /  0.0mm 79 W/m2
11:18 63 °F /  17.2 °C 58.6 °F /  14.8 °C 30in /  1016.9hPa ENE 0.9mph /  1.4km/h 2mph /  3.2km/h 86% 0in /  0.0mm 72 W/m2
11:23 62.8 °F /  17.1 °C 58.8 °F /  14.9 °C 30in /  1016.9hPa NE 0.9mph /  1.4km/h 6mph /  9.7km/h 87% 0in /  0.0mm 67 W/m2
11:28 62.8 °F /  17.1 °C 58.8 °F /  14.9 °C 30in /  1016.9hPa East 2mph /  3.2km/h 2mph /  3.2km/h 87% 0in /  0.0mm 65 W/m2
11:33 62.8 °F /  17.1 °C 58.8 °F /  14.9 °C 30in /  1016.9hPa SE 0.9mph /  1.4km/h 3mph /  4.8km/h 87% 0in /  0.0mm 76 W/m2
11:38 62.8 °F /  17.1 °C 58.8 °F /  14.9 °C 30in /  1017.3hPa SE 0.9mph /  1.4km/h 2mph /  3.2km/h 87% 0in /  0.0mm 72 W/m2
11:43 62.8 °F /  17.1 °C 58.8 °F /  14.9 °C 30in /  1016.9hPa Calm   3mph /  4.8km/h 87% 0in /  0.0mm 84 W/m2
11:48 62.8 °F /  17.1 °C 58.8 °F /  14.9 °C 30in /  1016.9hPa NW 0.9mph /  1.4km/h 2mph /  3.2km/h 87% 0in /  0.0mm 104 W/m2
11:53 62.8 °F /  17.1 °C 58.8 °F /  14.9 °C 30in /  1016.9hPa WNW 2mph /  3.2km/h 2mph /  3.2km/h 87% 0in /  0.0mm 109 W/m2
11:58 62.8 °F /  17.1 °C 58.8 °F /  14.9 °C 30in /  1016.9hPa NNE 2mph /  3.2km/h 2mph /  3.2km/h 87% 0in /  0.0mm 105 W/m2
12:03 62.8 °F /  17.1 °C 58.8 °F /  14.9 °C 30in /  1016.9hPa Calm   2mph /  3.2km/h 87% 0in /  0.0mm 111 W/m2
12:08 62.8 °F /  17.1 °C 58.8 °F /  14.9 °C 30in /  1016.9hPa Calm   1mph /  1.6km/h 87% 0in /  0.0mm 123 W/m2
12:13 63 °F /  17.2 °C 59.4 °F /  15.2 °C 30in /  1016.9hPa Calm   1mph /  1.6km/h 88% 0in /  0.0mm 139 W/m2
12:18 63 °F /  17.2 °C 59 °F /  15 °C 30in /  1016.9hPa NW 0.9mph /  1.4km/h 2mph /  3.2km/h 87% 0in /  0.0mm 155 W/m2
12:23 63.1 °F /  17.3 °C 59.5 °F /  15.3 °C 30in /  1016.9hPa Calm   2mph /  3.2km/h 88% 0in /  0.0mm 188 W/m2
12:28 63.3 °F /  17.4 °C 59.4 °F /  15.2 °C 30in /  1017.3hPa ENE 0.9mph /  1.4km/h 3mph /  4.8km/h 87% 0in /  0.0mm 207 W/m2
12:33 63.3 °F /  17.4 °C 59.4 °F /  15.2 °C 30in /  1016.9hPa Calm   2mph /  3.2km/h 87% 0in /  0.0mm 232 W/m2
12:38 63.7 °F /  17.6 °C 59.7 °F /  15.4 °C 30in /  1016.9hPa Calm   4mph /  6.4km/h 87% 0in /  0.0mm 272 W/m2
12:43 63.9 °F /  17.7 °C 59.9 °F /  15.5 °C 30in /  1016.9hPa West 0.9mph /  1.4km/h 2mph /  3.2km/h 87% 0in /  0.0mm 306 W/m2
12:48 64 °F /  17.8 °C 60.1 °F /  15.6 °C 30in /  1016.9hPa NW 0.9mph /  1.4km/h 4mph /  6.4km/h 87% 0in /  0.0mm 329 W/m2
12:53 64.2 °F /  17.9 °C 59.5 °F /  15.3 °C 30in /  1016.9hPa Calm   2mph /  3.2km/h 85% 0in /  0.0mm 332 W/m2
12:58 64.6 °F /  18.1 °C 60.3 °F /  15.7 °C 30in /  1016.9hPa WSW 2mph /  3.2km/h 2mph /  3.2km/h 86% 0in /  0.0mm 332 W/m2
13:03 64.8 °F /  18.2 °C 60.1 °F /  15.6 °C 30in /  1016.9hPa Calm   1mph /  1.6km/h 85% 0in /  0.0mm 325 W/m2
13:08 64.9 °F /  18.3 °C 60.3 °F /  15.7 °C 30in /  1016.9hPa West 0.9mph /  1.4km/h 1mph /  1.6km/h 85% 0in /  0.0mm 292 W/m2
13:13 65.5 °F /  18.6 °C 60.4 °F /  15.8 °C 30in /  1016.9hPa Calm   2mph /  3.2km/h 84% 0in /  0.0mm 294 W/m2
13:18 65.7 °F /  18.7 °C 60.4 °F /  15.8 °C 30in /  1016.9hPa NNW 2.9mph /  4.7km/h 3mph /  4.8km/h 83% 0in /  0.0mm 262 W/m2
13:23 65.8 °F /  18.8 °C 60.6 °F /  15.9 °C 30in /  1016.9hPa North 2mph /  3.2km/h 4mph /  6.4km/h 83% 0in /  0.0mm 209 W/m2
13:28 65.8 °F /  18.8 °C 60.3 °F /  15.7 °C 30in /  1016.9hPa Calm   1mph /  1.6km/h 82% 0in /  0.0mm 206 W/m2
13:33 66 °F /  18.9 °C 60.4 °F /  15.8 °C 30in /  1016.9hPa Calm   1mph /  1.6km/h 82% 0in /  0.0mm 220 W/m2
13:38 66 °F /  18.9 °C 60.4 °F /  15.8 °C 30in /  1016.9hPa SE 2.9mph /  4.7km/h 4mph /  6.4km/h 82% 0in /  0.0mm 207 W/m2
Juneau County Weather
Compliments of Weather Underground - 2 mb